sensor_id;sensor_type;location;lat;lon;timestamp;temperature;humidity
52103;DHT22;38101;53.126;6.878;2022-11-14T00:00:10;7.70;99.90
52103;DHT22;38101;53.126;6.878;2022-11-14T00:02:37;7.60;99.90
52103;DHT22;38101;53.126;6.878;2022-11-14T00:05:04;7.60;99.90
52103;DHT22;38101;53.126;6.878;2022-11-14T00:07:31;7.70;99.90
52103;DHT22;38101;53.126;6.878;2022-11-14T00:09:57;7.60;99.90
52103;DHT22;38101;53.126;6.878;2022-11-14T00:12:23;7.60;99.90
52103;DHT22;38101;53.126;6.878;2022-11-14T00:14:49;7.60;99.90
52103;DHT22;38101;53.126;6.878;2022-11-14T00:17:16;7.60;99.90
52103;DHT22;38101;53.126;6.878;2022-11-14T00:19:42;7.70;99.90
52103;DHT22;38101;53.126;6.878;2022-11-14T00:22:08;7.70;99.90
52103;DHT22;38101;53.126;6.878;2022-11-14T00:24:34;7.70;99.90
52103;DHT22;38101;53.126;6.878;2022-11-14T00:26:59;7.70;99.90
52103;DHT22;38101;53.126;6.878;2022-11-14T00:29:25;7.60;99.90
52103;DHT22;38101;53.126;6.878;2022-11-14T00:31:51;7.60;99.90
52103;DHT22;38101;53.126;6.878;2022-11-14T00:34:16;7.70;99.90
52103;DHT22;38101;53.126;6.878;2022-11-14T00:36:42;7.70;99.90
52103;DHT22;38101;53.126;6.878;2022-11-14T00:39:12;7.70;99.90
52103;DHT22;38101;53.126;6.878;2022-11-14T00:41:39;7.70;99.90
52103;DHT22;38101;53.126;6.878;2022-11-14T00:44:05;7.80;99.90
52103;DHT22;38101;53.126;6.878;2022-11-14T00:46:32;7.80;99.90
52103;DHT22;38101;53.126;6.878;2022-11-14T00:48:57;7.70;99.90
52103;DHT22;38101;53.126;6.878;2022-11-14T00:51:23;7.70;99.90
52103;DHT22;38101;53.126;6.878;2022-11-14T00:53:49;7.70;99.90
52103;DHT22;38101;53.126;6.878;2022-11-14T00:56:14;7.70;99.90
52103;DHT22;38101;53.126;6.878;2022-11-14T00:58:40;7.70;99.90
52103;DHT22;38101;53.126;6.878;2022-11-14T01:01:05;7.80;99.90
52103;DHT22;38101;53.126;6.878;2022-11-14T01:03:31;7.60;99.90
52103;DHT22;38101;53.126;6.878;2022-11-14T01:06:01;7.60;99.90
52103;DHT22;38101;53.126;6.878;2022-11-14T01:08:27;7.70;99.90
52103;DHT22;38101;53.126;6.878;2022-11-14T01:10:53;7.60;99.90
52103;DHT22;38101;53.126;6.878;2022-11-14T01:13:19;7.60;99.90
52103;DHT22;38101;53.126;6.878;2022-11-14T01:15:46;7.50;99.90
52103;DHT22;38101;53.126;6.878;2022-11-14T01:18:16;7.60;99.90
52103;DHT22;38101;53.126;6.878;2022-11-14T01:20:44;7.50;99.90
52103;DHT22;38101;53.126;6.878;2022-11-14T01:23:11;7.50;99.90
52103;DHT22;38101;53.126;6.878;2022-11-14T01:25:38;7.50;99.90
52103;DHT22;38101;53.126;6.878;2022-11-14T01:28:13;7.50;99.90
52103;DHT22;38101;53.126;6.878;2022-11-14T01:30:39;7.50;99.90
52103;DHT22;38101;53.126;6.878;2022-11-14T01:33:05;7.50;99.90
52103;DHT22;38101;53.126;6.878;2022-11-14T01:35:32;7.50;99.90
52103;DHT22;38101;53.126;6.878;2022-11-14T01:37:59;7.50;99.90
52103;DHT22;38101;53.126;6.878;2022-11-14T01:40:25;7.50;99.90
52103;DHT22;38101;53.126;6.878;2022-11-14T01:46:00;7.50;99.90
52103;DHT22;38101;53.126;6.878;2022-11-14T01:51:40;7.50;99.90
52103;DHT22;38101;53.126;6.878;2022-11-14T01:54:11;7.50;99.90
52103;DHT22;38101;53.126;6.878;2022-11-14T01:56:43;7.50;99.90
52103;DHT22;38101;53.126;6.878;2022-11-14T01:59:14;7.50;99.90
52103;DHT22;38101;53.126;6.878;2022-11-14T02:01:45;7.50;99.90
52103;DHT22;38101;53.126;6.878;2022-11-14T02:04:27;7.50;99.90
52103;DHT22;38101;53.126;6.878;2022-11-14T02:06:58;7.50;99.90
52103;DHT22;38101;53.126;6.878;2022-11-14T02:09:25;7.50;99.90
52103;DHT22;38101;53.126;6.878;2022-11-14T02:11:54;7.50;99.90
52103;DHT22;38101;53.126;6.878;2022-11-14T02:14:21;7.50;99.90
52103;DHT22;38101;53.126;6.878;2022-11-14T02:16:47;7.50;99.90
52103;DHT22;38101;53.126;6.878;2022-11-14T02:19:16;7.50;99.90
52103;DHT22;38101;53.126;6.878;2022-11-14T02:21:41;7.60;99.90
52103;DHT22;38101;53.126;6.878;2022-11-14T02:24:09;7.50;99.90
52103;DHT22;38101;53.126;6.878;2022-11-14T02:26:34;7.60;99.90
52103;DHT22;38101;53.126;6.878;2022-11-14T02:29:00;7.50;99.90
52103;DHT22;38101;53.126;6.878;2022-11-14T02:31:26;7.60;99.90
52103;DHT22;38101;53.126;6.878;2022-11-14T02:33:52;7.60;99.90
52103;DHT22;38101;53.126;6.878;2022-11-14T02:36:17;7.60;99.90
52103;DHT22;38101;53.126;6.878;2022-11-14T02:38:43;7.60;99.90
52103;DHT22;38101;53.126;6.878;2022-11-14T02:41:09;7.60;99.90
52103;DHT22;38101;53.126;6.878;2022-11-14T02:43:34;7.70;99.90
52103;DHT22;38101;53.126;6.878;2022-11-14T02:46:00;7.60;99.90
52103;DHT22;38101;53.126;6.878;2022-11-14T02:48:25;7.60;99.90
52103;DHT22;38101;53.126;6.878;2022-11-14T02:50:51;7.60;99.90
52103;DHT22;38101;53.126;6.878;2022-11-14T02:53:17;7.70;99.90
52103;DHT22;38101;53.126;6.878;2022-11-14T02:55:42;7.70;99.90
52103;DHT22;38101;53.126;6.878;2022-11-14T02:58:08;7.70;99.90
52103;DHT22;38101;53.126;6.878;2022-11-14T03:00:34;7.70;99.90
52103;DHT22;38101;53.126;6.878;2022-11-14T03:03:00;7.70;99.90
52103;DHT22;38101;53.126;6.878;2022-11-14T03:05:25;7.70;99.90
52103;DHT22;38101;53.126;6.878;2022-11-14T03:07:55;7.80;99.90
52103;DHT22;38101;53.126;6.878;2022-11-14T03:10:21;7.70;99.90
52103;DHT22;38101;53.126;6.878;2022-11-14T03:12:47;7.60;99.90
52103;DHT22;38101;53.126;6.878;2022-11-14T03:15:13;7.70;99.90
52103;DHT22;38101;53.126;6.878;2022-11-14T03:17:38;7.70;99.90
52103;DHT22;38101;53.126;6.878;2022-11-14T03:20:05;7.70;99.90
52103;DHT22;38101;53.126;6.878;2022-11-14T03:22:31;7.70;99.90
52103;DHT22;38101;53.126;6.878;2022-11-14T03:24:57;7.70;99.90
52103;DHT22;38101;53.126;6.878;2022-11-14T03:27:22;7.60;99.90
52103;DHT22;38101;53.126;6.878;2022-11-14T03:29:48;7.70;99.90
52103;DHT22;38101;53.126;6.878;2022-11-14T03:32:14;7.60;99.90
52103;DHT22;38101;53.126;6.878;2022-11-14T03:34:41;7.70;99.90
52103;DHT22;38101;53.126;6.878;2022-11-14T03:37:07;7.60;99.90
52103;DHT22;38101;53.126;6.878;2022-11-14T03:39:32;7.70;99.90
52103;DHT22;38101;53.126;6.878;2022-11-14T03:41:58;7.70;99.90
52103;DHT22;38101;53.126;6.878;2022-11-14T03:44:24;7.70;99.90
52103;DHT22;38101;53.126;6.878;2022-11-14T03:46:50;7.70;99.90
52103;DHT22;38101;53.126;6.878;2022-11-14T03:49:16;7.70;99.90
52103;DHT22;38101;53.126;6.878;2022-11-14T03:51:42;7.70;99.90
52103;DHT22;38101;53.126;6.878;2022-11-14T03:54:07;7.70;99.90
52103;DHT22;38101;53.126;6.878;2022-11-14T03:56:33;7.70;99.90
52103;DHT22;38101;53.126;6.878;2022-11-14T03:58:59;7.70;99.90
52103;DHT22;38101;53.126;6.878;2022-11-14T04:01:24;7.70;99.90
52103;DHT22;38101;53.126;6.878;2022-11-14T04:03:51;7.70;99.90
52103;DHT22;38101;53.126;6.878;2022-11-14T04:06:16;7.70;99.90
52103;DHT22;38101;53.126;6.878;2022-11-14T04:08:42;7.60;99.90
52103;DHT22;38101;53.126;6.878;2022-11-14T04:11:08;7.70;99.90
52103;DHT22;38101;53.126;6.878;2022-11-14T04:13:33;7.70;99.90
52103;DHT22;38101;53.126;6.878;2022-11-14T04:15:59;7.60;99.90
52103;DHT22;38101;53.126;6.878;2022-11-14T04:18:25;7.60;99.90
52103;DHT22;38101;53.126;6.878;2022-11-14T04:20:51;7.60;99.90
52103;DHT22;38101;53.126;6.878;2022-11-14T04:23:18;7.60;99.90
52103;DHT22;38101;53.126;6.878;2022-11-14T04:25:44;7.60;99.90
52103;DHT22;38101;53.126;6.878;2022-11-14T04:28:10;7.60;99.90
52103;DHT22;38101;53.126;6.878;2022-11-14T04:30:35;7.60;99.90
52103;DHT22;38101;53.126;6.878;2022-11-14T04:33:01;7.60;99.90
52103;DHT22;38101;53.126;6.878;2022-11-14T04:35:27;7.60;99.90
52103;DHT22;38101;53.126;6.878;2022-11-14T04:37:52;7.60;99.90
52103;DHT22;38101;53.126;6.878;2022-11-14T04:40:18;7.60;99.90
52103;DHT22;38101;53.126;6.878;2022-11-14T04:42:44;7.60;99.90
52103;DHT22;38101;53.126;6.878;2022-11-14T04:45:10;7.50;99.90
52103;DHT22;38101;53.126;6.878;2022-11-14T04:47:35;7.50;99.90
52103;DHT22;38101;53.126;6.878;2022-11-14T04:50:02;7.50;99.90
52103;DHT22;38101;53.126;6.878;2022-11-14T04:52:28;7.50;99.90
52103;DHT22;38101;53.126;6.878;2022-11-14T04:54:54;7.50;99.90
52103;DHT22;38101;53.126;6.878;2022-11-14T04:57:19;7.50;99.90
52103;DHT22;38101;53.126;6.878;2022-11-14T04:59:45;7.50;99.90
52103;DHT22;38101;53.126;6.878;2022-11-14T05:02:10;7.50;99.90
52103;DHT22;38101;53.126;6.878;2022-11-14T05:04:36;7.50;99.90
52103;DHT22;38101;53.126;6.878;2022-11-14T05:07:02;7.50;99.90
52103;DHT22;38101;53.126;6.878;2022-11-14T05:09:27;7.50;99.90
52103;DHT22;38101;53.126;6.878;2022-11-14T05:11:53;7.50;99.90
52103;DHT22;38101;53.126;6.878;2022-11-14T05:14:19;7.50;99.90
52103;DHT22;38101;53.126;6.878;2022-11-14T05:16:44;7.40;99.90
52103;DHT22;38101;53.126;6.878;2022-11-14T05:19:10;7.50;99.90
52103;DHT22;38101;53.126;6.878;2022-11-14T05:21:36;7.50;99.90
52103;DHT22;38101;53.126;6.878;2022-11-14T05:24:01;7.40;99.90
52103;DHT22;38101;53.126;6.878;2022-11-14T05:26:27;7.40;99.90
52103;DHT22;38101;53.126;6.878;2022-11-14T05:28:52;7.40;99.90
52103;DHT22;38101;53.126;6.878;2022-11-14T05:31:18;7.40;99.90
52103;DHT22;38101;53.126;6.878;2022-11-14T05:33:44;7.40;99.90
52103;DHT22;38101;53.126;6.878;2022-11-14T05:36:13;7.40;99.90
52103;DHT22;38101;53.126;6.878;2022-11-14T05:38:39;7.40;99.90
52103;DHT22;38101;53.126;6.878;2022-11-14T05:41:15;7.40;99.90
52103;DHT22;38101;53.126;6.878;2022-11-14T05:43:42;7.30;99.90
52103;DHT22;38101;53.126;6.878;2022-11-14T05:46:10;7.40;99.90
52103;DHT22;38101;53.126;6.878;2022-11-14T05:48:36;7.40;99.90
52103;DHT22;38101;53.126;6.878;2022-11-14T05:51:03;7.30;99.90
52103;DHT22;38101;53.126;6.878;2022-11-14T05:53:30;7.30;99.90
52103;DHT22;38101;53.126;6.878;2022-11-14T05:56:01;7.30;99.90
52103;DHT22;38101;53.126;6.878;2022-11-14T05:58:27;7.30;99.90
52103;DHT22;38101;53.126;6.878;2022-11-14T06:01:04;7.30;99.90
52103;DHT22;38101;53.126;6.878;2022-11-14T06:03:32;7.30;99.90
52103;DHT22;38101;53.126;6.878;2022-11-14T06:06:02;7.30;99.90
52103;DHT22;38101;53.126;6.878;2022-11-14T06:08:32;7.20;99.90
52103;DHT22;38101;53.126;6.878;2022-11-14T06:11:20;7.20;99.90
52103;DHT22;38101;53.126;6.878;2022-11-14T06:13:46;7.20;99.90
52103;DHT22;38101;53.126;6.878;2022-11-14T06:16:17;7.20;99.90
52103;DHT22;38101;53.126;6.878;2022-11-14T06:18:44;7.20;99.90
52103;DHT22;38101;53.126;6.878;2022-11-14T06:21:12;7.20;99.90
52103;DHT22;38101;53.126;6.878;2022-11-14T06:23:38;7.10;99.90
52103;DHT22;38101;53.126;6.878;2022-11-14T06:26:22;7.10;99.90
52103;DHT22;38101;53.126;6.878;2022-11-14T06:28:49;7.10;99.90
52103;DHT22;38101;53.126;6.878;2022-11-14T06:31:16;7.10;99.90
52103;DHT22;38101;53.126;6.878;2022-11-14T06:33:42;7.10;99.90
52103;DHT22;38101;53.126;6.878;2022-11-14T06:36:08;7.10;99.90
52103;DHT22;38101;53.126;6.878;2022-11-14T06:38:36;7.10;99.90
52103;DHT22;38101;53.126;6.878;2022-11-14T06:41:19;7.10;99.90
52103;DHT22;38101;53.126;6.878;2022-11-14T06:43:47;7.10;99.90
52103;DHT22;38101;53.126;6.878;2022-11-14T06:46:18;7.00;99.90
52103;DHT22;38101;53.126;6.878;2022-11-14T06:48:45;7.00;99.90
52103;DHT22;38101;53.126;6.878;2022-11-14T06:51:12;7.00;99.90
52103;DHT22;38101;53.126;6.878;2022-11-14T06:53:38;7.00;99.90
52103;DHT22;38101;53.126;6.878;2022-11-14T06:56:08;6.90;99.90
52103;DHT22;38101;53.126;6.878;2022-11-14T06:58:37;6.90;99.90
52103;DHT22;38101;53.126;6.878;2022-11-14T07:01:11;7.10;99.90
52103;DHT22;38101;53.126;6.878;2022-11-14T07:03:37;7.00;99.90
52103;DHT22;38101;53.126;6.878;2022-11-14T07:06:03;7.00;99.90
52103;DHT22;38101;53.126;6.878;2022-11-14T07:08:29;7.00;99.90
52103;DHT22;38101;53.126;6.878;2022-11-14T07:11:10;6.90;99.90
52103;DHT22;38101;53.126;6.878;2022-11-14T07:13:36;7.00;99.90
52103;DHT22;38101;53.126;6.878;2022-11-14T07:16:03;6.90;99.90
52103;DHT22;38101;53.126;6.878;2022-11-14T07:18:30;7.00;99.90
52103;DHT22;38101;53.126;6.878;2022-11-14T07:21:01;7.00;99.90
52103;DHT22;38101;53.126;6.878;2022-11-14T07:23:28;7.00;99.90
52103;DHT22;38101;53.126;6.878;2022-11-14T07:25:54;7.00;99.90
52103;DHT22;38101;53.126;6.878;2022-11-14T07:28:20;7.00;99.90
52103;DHT22;38101;53.126;6.878;2022-11-14T07:30:46;7.00;99.90
52103;DHT22;38101;53.126;6.878;2022-11-14T07:33:11;7.00;99.90
52103;DHT22;38101;53.126;6.878;2022-11-14T07:35:40;7.00;99.90
52103;DHT22;38101;53.126;6.878;2022-11-14T07:38:05;7.10;99.90
52103;DHT22;38101;53.126;6.878;2022-11-14T07:40:31;7.00;99.90
52103;DHT22;38101;53.126;6.878;2022-11-14T07:42:58;7.00;99.90
52103;DHT22;38101;53.126;6.878;2022-11-14T07:45:24;7.00;99.90
52103;DHT22;38101;53.126;6.878;2022-11-14T07:47:56;7.10;99.90
52103;DHT22;38101;53.126;6.878;2022-11-14T07:50:22;7.00;99.90
52103;DHT22;38101;53.126;6.878;2022-11-14T07:52:52;7.10;99.90
52103;DHT22;38101;53.126;6.878;2022-11-14T07:55:19;7.10;99.90
52103;DHT22;38101;53.126;6.878;2022-11-14T07:57:45;7.10;99.90
52103;DHT22;38101;53.126;6.878;2022-11-14T08:00:12;7.10;99.90
52103;DHT22;38101;53.126;6.878;2022-11-14T08:02:38;7.10;99.90
52103;DHT22;38101;53.126;6.878;2022-11-14T08:05:04;7.10;99.90
52103;DHT22;38101;53.126;6.878;2022-11-14T08:07:30;7.10;99.90
52103;DHT22;38101;53.126;6.878;2022-11-14T08:09:55;7.10;99.90
52103;DHT22;38101;53.126;6.878;2022-11-14T08:12:21;7.10;99.90
52103;DHT22;38101;53.126;6.878;2022-11-14T08:14:47;7.10;99.90
52103;DHT22;38101;53.126;6.878;2022-11-14T08:17:12;7.10;99.90
52103;DHT22;38101;53.126;6.878;2022-11-14T08:19:38;7.10;99.90
52103;DHT22;38101;53.126;6.878;2022-11-14T08:22:05;7.10;99.90
52103;DHT22;38101;53.126;6.878;2022-11-14T08:24:31;7.10;99.90
52103;DHT22;38101;53.126;6.878;2022-11-14T08:26:56;7.10;99.90
52103;DHT22;38101;53.126;6.878;2022-11-14T08:29:22;7.10;99.90
52103;DHT22;38101;53.126;6.878;2022-11-14T08:31:48;7.20;99.90
52103;DHT22;38101;53.126;6.878;2022-11-14T08:34:14;7.10;99.90
52103;DHT22;38101;53.126;6.878;2022-11-14T08:36:39;7.10;99.90
52103;DHT22;38101;53.126;6.878;2022-11-14T08:39:05;7.10;99.90
52103;DHT22;38101;53.126;6.878;2022-11-14T08:41:31;7.10;99.90
52103;DHT22;38101;53.126;6.878;2022-11-14T08:43:56;7.20;99.90
52103;DHT22;38101;53.126;6.878;2022-11-14T08:46:22;7.20;99.90
52103;DHT22;38101;53.126;6.878;2022-11-14T08:48:48;7.10;99.90
52103;DHT22;38101;53.126;6.878;2022-11-14T08:51:13;7.10;99.90
52103;DHT22;38101;53.126;6.878;2022-11-14T08:53:39;7.30;99.90
52103;DHT22;38101;53.126;6.878;2022-11-14T08:56:05;7.20;99.90
52103;DHT22;38101;53.126;6.878;2022-11-14T08:58:31;7.20;99.90
52103;DHT22;38101;53.126;6.878;2022-11-14T09:01:01;7.30;99.90
52103;DHT22;38101;53.126;6.878;2022-11-14T09:03:28;7.30;99.90
52103;DHT22;38101;53.126;6.878;2022-11-14T09:05:53;7.30;99.90
52103;DHT22;38101;53.126;6.878;2022-11-14T09:08:19;7.30;99.90
52103;DHT22;38101;53.126;6.878;2022-11-14T09:10:45;7.40;99.90
52103;DHT22;38101;53.126;6.878;2022-11-14T09:13:11;7.30;99.90
52103;DHT22;38101;53.126;6.878;2022-11-14T09:15:36;7.30;99.90
52103;DHT22;38101;53.126;6.878;2022-11-14T09:18:02;7.40;99.90
52103;DHT22;38101;53.126;6.878;2022-11-14T09:20:28;7.40;99.90
52103;DHT22;38101;53.126;6.878;2022-11-14T09:22:58;7.40;99.90
52103;DHT22;38101;53.126;6.878;2022-11-14T09:25:23;7.50;99.90
52103;DHT22;38101;53.126;6.878;2022-11-14T09:27:51;7.40;99.90
52103;DHT22;38101;53.126;6.878;2022-11-14T09:30:20;7.50;99.90
52103;DHT22;38101;53.126;6.878;2022-11-14T09:32:47;7.50;99.90
52103;DHT22;38101;53.126;6.878;2022-11-14T09:35:13;7.50;99.90
52103;DHT22;38101;53.126;6.878;2022-11-14T09:37:39;7.50;99.90
52103;DHT22;38101;53.126;6.878;2022-11-14T09:40:06;7.50;99.90
52103;DHT22;38101;53.126;6.878;2022-11-14T09:42:58;7.40;99.90
52103;DHT22;38101;53.126;6.878;2022-11-14T09:45:27;7.40;99.90
52103;DHT22;38101;53.126;6.878;2022-11-14T09:48:00;7.40;99.90
52103;DHT22;38101;53.126;6.878;2022-11-14T09:50:32;7.40;99.90
52103;DHT22;38101;53.126;6.878;2022-11-14T09:53:04;7.40;99.90
52103;DHT22;38101;53.126;6.878;2022-11-14T09:55:33;7.50;99.90
52103;DHT22;38101;53.126;6.878;2022-11-14T09:58:01;7.50;99.90
52103;DHT22;38101;53.126;6.878;2022-11-14T10:00:35;7.50;99.90
52103;DHT22;38101;53.126;6.878;2022-11-14T10:03:13;7.50;99.90
52103;DHT22;38101;53.126;6.878;2022-11-14T10:11:40;7.70;99.90
52103;DHT22;38101;53.126;6.878;2022-11-14T10:19:54;7.60;99.90
52103;DHT22;38101;53.126;6.878;2022-11-14T10:30:42;7.70;99.90
52103;DHT22;38101;53.126;6.878;2022-11-14T10:35:57;7.70;99.90
52103;DHT22;38101;53.126;6.878;2022-11-14T10:38:31;7.70;99.90
52103;DHT22;38101;53.126;6.878;2022-11-14T10:41:00;7.70;99.90
52103;DHT22;38101;53.126;6.878;2022-11-14T10:43:34;7.70;99.90
52103;DHT22;38101;53.126;6.878;2022-11-14T10:48:44;7.70;99.90
52103;DHT22;38101;53.126;6.878;2022-11-14T10:54:00;7.70;99.90
52103;DHT22;38101;53.126;6.878;2022-11-14T10:56:27;7.70;99.90
52103;DHT22;38101;53.126;6.878;2022-11-14T10:58:54;7.70;99.90
52103;DHT22;38101;53.126;6.878;2022-11-14T11:01:45;7.80;99.90
52103;DHT22;38101;53.126;6.878;2022-11-14T11:04:37;7.80;99.90
52103;DHT22;38101;53.126;6.878;2022-11-14T11:09:33;7.80;99.90
52103;DHT22;38101;53.126;6.878;2022-11-14T11:12:22;7.80;99.90
52103;DHT22;38101;53.126;6.878;2022-11-14T11:15:06;7.90;99.90
52103;DHT22;38101;53.126;6.878;2022-11-14T11:17:33;8.00;99.90
52103;DHT22;38101;53.126;6.878;2022-11-14T11:20:23;8.10;99.90
52103;DHT22;38101;53.126;6.878;2022-11-14T11:22:50;8.10;99.90
52103;DHT22;38101;53.126;6.878;2022-11-14T11:25:27;8.20;99.90
52103;DHT22;38101;53.126;6.878;2022-11-14T11:30:36;8.30;99.90
52103;DHT22;38101;53.126;6.878;2022-11-14T11:33:16;8.30;99.90
52103;DHT22;38101;53.126;6.878;2022-11-14T11:35:51;8.40;99.90
52103;DHT22;38101;53.126;6.878;2022-11-14T11:38:18;8.40;99.90
52103;DHT22;38101;53.126;6.878;2022-11-14T11:40:46;8.50;99.90
52103;DHT22;38101;53.126;6.878;2022-11-14T11:43:21;8.50;99.90
52103;DHT22;38101;53.126;6.878;2022-11-14T11:45:51;8.60;99.90
52103;DHT22;38101;53.126;6.878;2022-11-14T11:48:20;8.60;99.90
52103;DHT22;38101;53.126;6.878;2022-11-14T11:50:48;8.60;99.90
52103;DHT22;38101;53.126;6.878;2022-11-14T11:53:23;8.70;99.90
52103;DHT22;38101;53.126;6.878;2022-11-14T11:55:58;8.80;99.90
52103;DHT22;38101;53.126;6.878;2022-11-14T11:58:35;8.80;99.90
52103;DHT22;38101;53.126;6.878;2022-11-14T12:01:02;8.80;99.90
52103;DHT22;38101;53.126;6.878;2022-11-14T12:03:27;8.90;99.90
52103;DHT22;38101;53.126;6.878;2022-11-14T12:08:50;9.00;99.90
52103;DHT22;38101;53.126;6.878;2022-11-14T12:11:23;9.00;99.90
52103;DHT22;38101;53.126;6.878;2022-11-14T12:16:54;9.20;99.90
52103;DHT22;38101;53.126;6.878;2022-11-14T12:30:19;9.60;99.90
52103;DHT22;38101;53.126;6.878;2022-11-14T12:35:30;9.70;99.90
52103;DHT22;38101;53.126;6.878;2022-11-14T12:37:57;9.80;99.90
52103;DHT22;38101;53.126;6.878;2022-11-14T12:40:33;9.80;99.90
52103;DHT22;38101;53.126;6.878;2022-11-14T12:43:01;9.90;99.90
52103;DHT22;38101;53.126;6.878;2022-11-14T12:48:21;10.00;99.90
52103;DHT22;38101;53.126;6.878;2022-11-14T12:50:47;10.10;99.90
52103;DHT22;38101;53.126;6.878;2022-11-14T12:56:10;10.20;99.90
52103;DHT22;38101;53.126;6.878;2022-11-14T13:10:14;10.40;99.90
52103;DHT22;38101;53.126;6.878;2022-11-14T13:12:42;10.50;99.90
52103;DHT22;38101;53.126;6.878;2022-11-14T13:15:53;10.50;99.90
52103;DHT22;38101;53.126;6.878;2022-11-14T13:21:35;10.40;99.90
52103;DHT22;38101;53.126;6.878;2022-11-14T13:24:16;10.50;99.90
52103;DHT22;38101;53.126;6.878;2022-11-14T13:26:44;10.50;99.90
52103;DHT22;38101;53.126;6.878;2022-11-14T13:32:03;10.50;99.90
52103;DHT22;38101;53.126;6.878;2022-11-14T13:34:49;10.60;99.90
52103;DHT22;38101;53.126;6.878;2022-11-14T13:51:20;10.50;99.90
52103;DHT22;38101;53.126;6.878;2022-11-14T13:53:47;10.60;99.90
52103;DHT22;38101;53.126;6.878;2022-11-14T13:56:33;10.60;99.90
52103;DHT22;38101;53.126;6.878;2022-11-14T14:15:02;10.50;99.90
52103;DHT22;38101;53.126;6.878;2022-11-14T14:20:39;10.40;99.90
52103;DHT22;38101;53.126;6.878;2022-11-14T14:25:59;10.40;99.90
52103;DHT22;38101;53.126;6.878;2022-11-14T14:31:16;10.40;99.90
52103;DHT22;38101;53.126;6.878;2022-11-14T14:33:48;10.40;99.90
52103;DHT22;38101;53.126;6.878;2022-11-14T14:36:22;10.50;99.90
52103;DHT22;38101;53.126;6.878;2022-11-14T14:38:50;10.40;99.90
52103;DHT22;38101;53.126;6.878;2022-11-14T14:41:31;10.30;99.90
52103;DHT22;38101;53.126;6.878;2022-11-14T14:43:58;10.20;99.90
52103;DHT22;38101;53.126;6.878;2022-11-14T14:46:30;10.20;99.90
52103;DHT22;38101;53.126;6.878;2022-11-14T14:48:58;10.10;99.90
52103;DHT22;38101;53.126;6.878;2022-11-14T14:51:34;10.00;99.90
52103;DHT22;38101;53.126;6.878;2022-11-14T14:54:00;9.90;99.90
52103;DHT22;38101;53.126;6.878;2022-11-14T14:56:26;9.80;99.90
52103;DHT22;38101;53.126;6.878;2022-11-14T14:58:53;9.70;99.90
52103;DHT22;38101;53.126;6.878;2022-11-14T15:01:21;9.70;99.90
52103;DHT22;38101;53.126;6.878;2022-11-14T15:04:01;9.60;99.90
52103;DHT22;38101;53.126;6.878;2022-11-14T15:06:28;9.50;99.90
52103;DHT22;38101;53.126;6.878;2022-11-14T15:11:45;9.50;99.90
52103;DHT22;38101;53.126;6.878;2022-11-14T15:14:14;9.40;99.90
52103;DHT22;38101;53.126;6.878;2022-11-14T15:16:41;9.40;99.90
52103;DHT22;38101;53.126;6.878;2022-11-14T15:19:11;9.30;99.90
52103;DHT22;38101;53.126;6.878;2022-11-14T15:21:38;9.20;99.90
52103;DHT22;38101;53.126;6.878;2022-11-14T15:24:21;9.20;99.90
52103;DHT22;38101;53.126;6.878;2022-11-14T15:26:48;9.20;99.90
52103;DHT22;38101;53.126;6.878;2022-11-14T15:29:23;9.10;99.90
52103;DHT22;38101;53.126;6.878;2022-11-14T15:31:55;9.00;99.90
52103;DHT22;38101;53.126;6.878;2022-11-14T15:34:30;9.00;99.90
52103;DHT22;38101;53.126;6.878;2022-11-14T15:39:43;8.90;99.90
52103;DHT22;38101;53.126;6.878;2022-11-14T15:42:39;8.80;99.90
52103;DHT22;38101;53.126;6.878;2022-11-14T15:45:25;8.80;99.90
52103;DHT22;38101;53.126;6.878;2022-11-14T15:47:59;8.80;99.90
52103;DHT22;38101;53.126;6.878;2022-11-14T15:50:32;8.70;99.90
52103;DHT22;38101;53.126;6.878;2022-11-14T15:53:08;8.70;99.90
52103;DHT22;38101;53.126;6.878;2022-11-14T15:55:39;8.70;99.90
52103;DHT22;38101;53.126;6.878;2022-11-14T15:58:11;8.60;99.90
52103;DHT22;38101;53.126;6.878;2022-11-14T16:00:45;8.60;99.90
52103;DHT22;38101;53.126;6.878;2022-11-14T16:03:16;8.50;99.90
52103;DHT22;38101;53.126;6.878;2022-11-14T16:05:42;8.50;99.90
52103;DHT22;38101;53.126;6.878;2022-11-14T16:08:10;8.40;99.90
52103;DHT22;38101;53.126;6.878;2022-11-14T16:10:37;8.40;99.90
52103;DHT22;38101;53.126;6.878;2022-11-14T16:13:03;8.40;99.90
52103;DHT22;38101;53.126;6.878;2022-11-14T16:15:29;8.40;99.90
52103;DHT22;38101;53.126;6.878;2022-11-14T16:17:55;8.30;99.90
52103;DHT22;38101;53.126;6.878;2022-11-14T16:20:29;8.40;99.90
52103;DHT22;38101;53.126;6.878;2022-11-14T16:23:03;8.40;99.90
52103;DHT22;38101;53.126;6.878;2022-11-14T16:25:30;8.40;99.90
52103;DHT22;38101;53.126;6.878;2022-11-14T16:27:56;8.40;99.90
52103;DHT22;38101;53.126;6.878;2022-11-14T16:30:23;8.40;99.90
52103;DHT22;38101;53.126;6.878;2022-11-14T16:32:50;8.30;99.90
52103;DHT22;38101;53.126;6.878;2022-11-14T16:37:43;8.50;99.90
52103;DHT22;38101;53.126;6.878;2022-11-14T16:40:20;8.50;99.90
52103;DHT22;38101;53.126;6.878;2022-11-14T16:42:48;8.50;99.90
52103;DHT22;38101;53.126;6.878;2022-11-14T16:45:15;8.50;99.90
52103;DHT22;38101;53.126;6.878;2022-11-14T16:47:41;8.50;99.90
52103;DHT22;38101;53.126;6.878;2022-11-14T16:50:08;8.50;99.90
52103;DHT22;38101;53.126;6.878;2022-11-14T16:52:36;8.50;99.90
52103;DHT22;38101;53.126;6.878;2022-11-14T16:55:05;8.60;99.90
52103;DHT22;38101;53.126;6.878;2022-11-14T16:57:31;8.60;99.90
52103;DHT22;38101;53.126;6.878;2022-11-14T16:59:57;8.60;99.90
52103;DHT22;38101;53.126;6.878;2022-11-14T17:02:23;8.50;99.90
52103;DHT22;38101;53.126;6.878;2022-11-14T17:04:50;8.50;99.90
52103;DHT22;38101;53.126;6.878;2022-11-14T17:07:16;8.40;99.90
52103;DHT22;38101;53.126;6.878;2022-11-14T17:09:42;8.40;99.90
52103;DHT22;38101;53.126;6.878;2022-11-14T17:12:08;8.30;99.90
52103;DHT22;38101;53.126;6.878;2022-11-14T17:14:34;8.30;99.90
52103;DHT22;38101;53.126;6.878;2022-11-14T17:17:00;8.30;99.90
52103;DHT22;38101;53.126;6.878;2022-11-14T17:19:26;8.20;99.90
52103;DHT22;38101;53.126;6.878;2022-11-14T17:21:54;8.20;99.90
52103;DHT22;38101;53.126;6.878;2022-11-14T17:24:20;8.20;99.90
52103;DHT22;38101;53.126;6.878;2022-11-14T17:26:46;8.10;99.90
52103;DHT22;38101;53.126;6.878;2022-11-14T17:29:11;8.10;99.90
52103;DHT22;38101;53.126;6.878;2022-11-14T17:31:38;8.00;99.90
52103;DHT22;38101;53.126;6.878;2022-11-14T17:34:03;8.00;99.90
52103;DHT22;38101;53.126;6.878;2022-11-14T17:36:30;8.00;99.90
52103;DHT22;38101;53.126;6.878;2022-11-14T17:38:56;7.90;99.90
52103;DHT22;38101;53.126;6.878;2022-11-14T17:41:23;7.90;99.90
52103;DHT22;38101;53.126;6.878;2022-11-14T17:43:53;7.90;99.90
52103;DHT22;38101;53.126;6.878;2022-11-14T17:46:21;7.80;99.90
52103;DHT22;38101;53.126;6.878;2022-11-14T17:48:47;7.80;99.90
52103;DHT22;38101;53.126;6.878;2022-11-14T17:51:14;7.70;99.90
52103;DHT22;38101;53.126;6.878;2022-11-14T17:53:40;7.70;99.90
52103;DHT22;38101;53.126;6.878;2022-11-14T17:56:08;7.70;99.90
52103;DHT22;38101;53.126;6.878;2022-11-14T17:58:34;7.70;99.90
52103;DHT22;38101;53.126;6.878;2022-11-14T18:00:59;7.70;99.90